ムルマンスク の空港の天気 - METARとTAF

ムルマンスク空港 ( ULMM / MMK ) - ロシア ムルマンスク
飛行場実況気象(Metar)
観測時間01/20 20:30 MSK (01/20 17:30 UTC)
風向・風速西 5m/s 瞬間風速10m/s
視程2500m
天気現象弱いしゅう雪 高い地吹雪
全天を覆う雲 鉛直視程 340m
気温-6℃
湿度86%
気圧989hPa
METARULMM 201730Z 27005G10MPS 2500 -SHSN BLSN VV011 M06/M08 Q0989 R31/450334 TEMPO 27009G17MPS 0300 +SHSN BLSN VV002 RMK QFE735
過去の天気等 Google飛行場航空写真 Wunderground天気予報

過去48時間のMETAR

飛行場予報(TAF)
発表時間: 1/20 19:58 MSK (1/20 16:58 UTC)
予報対象時間: 20日21時 MSK ~ 21日21時 MSK
風向・風速西北西 6m/s 瞬間風速 14m/s
視程800m
天気現象強いしゅう雪 高い地吹雪
全天の8割程度の雲 雲底高度 210m
全天の8割程度の積乱雲 雲底高度 370m
20日21時 MSK ~ 21日7時 MSK に一時的に
風向・風速西南西 11m/s 瞬間風速 20m/s
視程200m
天気現象強いしゅう雪 高い地吹雪
全天を覆う雲 鉛直視程 60m
21日7時 MSK ~ 21日8時 MSK に徐々に
視程2,100m
天気現象弱いしゅう雪 高い地吹雪
全天の8割程度の積乱雲 雲底高度 300m
21日8時 MSK ~ 21日21時 MSK に一時的に
風向・風速北北西 3m/s 瞬間風速 10m/s
視程500m
天気現象強いしゅう雪
全天の8割程度の雲 雲底高度 150m
全天の8割程度の積乱雲 雲底高度 300m
TAF ULMM 201658Z 2018/2118 29006G14MPS 0800 +SHSN BLSN BKN007 BKN012CB
TEMPO 2018/2104 25011G20MPS 0200 +SHSN BLSN VV002
BECMG 2104/2105 2100 -SHSN BLSN BKN010CB
TEMPO 2105/2118 34003G10MPS 0500 +SHSN BKN005 BKN010CB